首页
METAR-TAF:

METAR-TAF

机场 :

Chisholm-Hibbing Airport

Hibbing, 明尼蘇達州, 美国

纬度: 47-23-12N, 经度: 092-50-20W, 海拔: 412米

当前天气观测

该预报发布于27分钟前的02:53 UTC
风速3节,风向东转东南
温度 9°C
湿度 61%
气压 1019 hPa
能見度: 16.1公里
天空无云

METAR: KHIB 010253Z AUTO 12003KT 10SM CLR 09/02 A3009 RMK AO2 SLP195 T00940022 55005

时间: 22:20 (03:20 UTC)

预报

该预报发布于3小时和42分钟前的23:38 UTC
预报有效从01日的 00点(UTC)到 01日的 24点(UTC)
风速6节,风向南转西南
能見度: 10公里
天空无云
从 01日的 1200点(UTC)
风速6节,风向南转南东
能見度: 10公里
阴天层高于2000英尺
小阵雨
从 01日的 1400点(UTC)
风速7节,风向
能見度: 8.0公里
阴天层高于700英尺, 积雨云.
小阵雨, 轻雾, 附近有雷暴
从 01日的 1700点(UTC)
风速7节,风向
能見度: 10公里
阴天层高于1200英尺
附近有阵雨

TAF: KHIB 312338Z 0100/0124 21006KT P6SM SKC FM011200 16006KT P6SM -SHRA OVC020 FM011400 17007KT 5SM -SHRA BR VCTS OVC007CB FM011700 19007KT P6SM VCSH OVC012

超过4000个机场的气象观测和天气预报(METAR&TAF报告)。

可查询的气象台以黄色和红色小点在地图上表示。

将鼠标移到小点上方,可查看气象台名称。

然后点击查看天气观测和预报。

如需切换地图:点击带黑十字的绿色按钮放大地图;点击带横线的绿色按钮缩小地图;或者点击绿色箭头查看邻近地区的地图。


METAR-TAF: